sensor_id;sensor_type;location;lat;lon;timestamp;P1;durP1;ratioP1;P2;durP2;ratioP2
19566;SDS011;9930;49.240;8.548;2022-12-07T00:01:46;5.53;;;5.03;;
19566;SDS011;9930;49.240;8.548;2022-12-07T00:04:17;5.00;;;4.50;;
19566;SDS011;9930;49.240;8.548;2022-12-07T00:06:45;6.28;;;4.93;;
19566;SDS011;9930;49.240;8.548;2022-12-07T00:09:17;4.80;;;4.40;;
19566;SDS011;9930;49.240;8.548;2022-12-07T00:11:48;5.10;;;4.60;;
19566;SDS011;9930;49.240;8.548;2022-12-07T00:14:16;5.63;;;4.80;;
19566;SDS011;9930;49.240;8.548;2022-12-07T00:16:50;5.22;;;4.72;;
19566;SDS011;9930;49.240;8.548;2022-12-07T00:19:19;4.95;;;4.55;;
19566;SDS011;9930;49.240;8.548;2022-12-07T00:21:45;5.93;;;4.68;;
19566;SDS011;9930;49.240;8.548;2022-12-07T00:24:11;5.43;;;4.93;;
19566;SDS011;9930;49.240;8.548;2022-12-07T00:26:40;5.35;;;4.85;;
19566;SDS011;9930;49.240;8.548;2022-12-07T00:29:11;5.13;;;4.65;;
19566;SDS011;9930;49.240;8.548;2022-12-07T00:31:45;4.88;;;4.47;;
19566;SDS011;9930;49.240;8.548;2022-12-07T00:34:12;5.15;;;4.63;;
19566;SDS011;9930;49.240;8.548;2022-12-07T00:36:46;4.65;;;4.25;;
19566;SDS011;9930;49.240;8.548;2022-12-07T00:39:16;5.25;;;4.70;;
19566;SDS011;9930;49.240;8.548;2022-12-07T00:41:46;4.63;;;4.22;;
19566;SDS011;9930;49.240;8.548;2022-12-07T00:44:15;5.10;;;4.65;;
19566;SDS011;9930;49.240;8.548;2022-12-07T00:46:40;5.90;;;5.30;;
19566;SDS011;9930;49.240;8.548;2022-12-07T00:49:10;5.60;;;5.10;;
19566;SDS011;9930;49.240;8.548;2022-12-07T00:51:40;5.70;;;5.20;;
19566;SDS011;9930;49.240;8.548;2022-12-07T00:54:06;5.88;;;5.05;;
19566;SDS011;9930;49.240;8.548;2022-12-07T00:56:37;5.45;;;4.95;;
19566;SDS011;9930;49.240;8.548;2022-12-07T00:59:03;5.30;;;4.80;;
19566;SDS011;9930;49.240;8.548;2022-12-07T01:01:32;5.85;;;4.55;;
19566;SDS011;9930;49.240;8.548;2022-12-07T01:04:00;5.45;;;4.47;;
19566;SDS011;9930;49.240;8.548;2022-12-07T01:06:29;4.60;;;4.15;;
19566;SDS011;9930;49.240;8.548;2022-12-07T01:08:59;4.53;;;4.13;;
19566;SDS011;9930;49.240;8.548;2022-12-07T01:11:29;5.45;;;4.50;;
19566;SDS011;9930;49.240;8.548;2022-12-07T01:14:00;4.90;;;4.25;;
19566;SDS011;9930;49.240;8.548;2022-12-07T01:16:27;4.82;;;4.40;;
19566;SDS011;9930;49.240;8.548;2022-12-07T01:18:58;4.13;;;3.72;;
19566;SDS011;9930;49.240;8.548;2022-12-07T01:21:28;5.22;;;4.72;;
19566;SDS011;9930;49.240;8.548;2022-12-07T01:24:00;5.10;;;4.60;;
19566;SDS011;9930;49.240;8.548;2022-12-07T01:26:26;6.72;;;4.72;;
19566;SDS011;9930;49.240;8.548;2022-12-07T01:28:53;5.03;;;4.47;;
19566;SDS011;9930;49.240;8.548;2022-12-07T01:31:21;4.82;;;4.43;;
19566;SDS011;9930;49.240;8.548;2022-12-07T01:33:53;4.57;;;4.15;;
19566;SDS011;9930;49.240;8.548;2022-12-07T01:36:27;4.03;;;3.67;;
19566;SDS011;9930;49.240;8.548;2022-12-07T01:39:03;5.10;;;4.53;;
19566;SDS011;9930;49.240;8.548;2022-12-07T01:41:33;4.38;;;3.95;;
19566;SDS011;9930;49.240;8.548;2022-12-07T01:46:55;4.68;;;4.28;;
19566;SDS011;9930;49.240;8.548;2022-12-07T01:49:34;4.80;;;4.40;;
19566;SDS011;9930;49.240;8.548;2022-12-07T01:52:18;4.35;;;4.05;;
19566;SDS011;9930;49.240;8.548;2022-12-07T01:54:56;5.18;;;4.68;;
19566;SDS011;9930;49.240;8.548;2022-12-07T01:57:30;5.18;;;4.20;;
19566;SDS011;9930;49.240;8.548;2022-12-07T01:59:59;4.78;;;4.38;;
19566;SDS011;9930;49.240;8.548;2022-12-07T02:02:26;5.75;;;5.25;;
19566;SDS011;9930;49.240;8.548;2022-12-07T02:04:58;5.70;;;5.07;;
19566;SDS011;9930;49.240;8.548;2022-12-07T02:07:26;5.18;;;4.75;;
19566;SDS011;9930;49.240;8.548;2022-12-07T02:09:57;5.40;;;4.90;;
19566;SDS011;9930;49.240;8.548;2022-12-07T02:12:39;5.18;;;4.68;;
19566;SDS011;9930;49.240;8.548;2022-12-07T02:15:05;4.85;;;4.40;;
19566;SDS011;9930;49.240;8.548;2022-12-07T02:20:28;4.78;;;4.28;;
19566;SDS011;9930;49.240;8.548;2022-12-07T02:29:16;5.10;;;4.60;;
19566;SDS011;9930;49.240;8.548;2022-12-07T02:32:24;4.63;;;4.22;;
19566;SDS011;9930;49.240;8.548;2022-12-07T02:38:11;5.78;;;4.82;;
19566;SDS011;9930;49.240;8.548;2022-12-07T02:40:59;5.35;;;4.85;;
19566;SDS011;9930;49.240;8.548;2022-12-07T02:43:34;5.50;;;5.00;;
19566;SDS011;9930;49.240;8.548;2022-12-07T02:46:12;5.88;;;4.70;;
19566;SDS011;9930;49.240;8.548;2022-12-07T02:49:16;6.25;;;5.03;;
19566;SDS011;9930;49.240;8.548;2022-12-07T02:51:51;5.80;;;5.30;;
19566;SDS011;9930;49.240;8.548;2022-12-07T02:54:22;5.18;;;4.68;;
19566;SDS011;9930;49.240;8.548;2022-12-07T02:56:52;6.28;;;5.30;;
19566;SDS011;9930;49.240;8.548;2022-12-07T03:07:52;5.07;;;4.55;;
19566;SDS011;9930;49.240;8.548;2022-12-07T03:16:30;5.50;;;4.57;;
19566;SDS011;9930;49.240;8.548;2022-12-07T03:19:06;5.03;;;4.63;;
19566;SDS011;9930;49.240;8.548;2022-12-07T03:21:40;5.57;;;5.00;;
19566;SDS011;9930;49.240;8.548;2022-12-07T03:24:15;5.55;;;4.97;;
19566;SDS011;9930;49.240;8.548;2022-12-07T03:26:52;5.32;;;4.78;;
19566;SDS011;9930;49.240;8.548;2022-12-07T03:29:38;5.07;;;4.57;;
19566;SDS011;9930;49.240;8.548;2022-12-07T03:32:23;4.95;;;3.80;;
19566;SDS011;9930;49.240;8.548;2022-12-07T03:35:24;5.30;;;4.75;;
19566;SDS011;9930;49.240;8.548;2022-12-07T03:38:22;4.75;;;4.35;;
19566;SDS011;9930;49.240;8.548;2022-12-07T03:43:59;4.95;;;4.45;;
19566;SDS011;9930;49.240;8.548;2022-12-07T03:46:32;5.30;;;4.80;;
19566;SDS011;9930;49.240;8.548;2022-12-07T03:49:34;5.07;;;4.30;;
19566;SDS011;9930;49.240;8.548;2022-12-07T03:55:50;4.90;;;4.35;;
19566;SDS011;9930;49.240;8.548;2022-12-07T03:58:20;5.20;;;4.70;;
19566;SDS011;9930;49.240;8.548;2022-12-07T04:00:51;5.35;;;4.68;;
19566;SDS011;9930;49.240;8.548;2022-12-07T04:03:18;4.78;;;4.35;;
19566;SDS011;9930;49.240;8.548;2022-12-07T04:05:53;5.28;;;4.78;;
19566;SDS011;9930;49.240;8.548;2022-12-07T04:08:23;5.15;;;4.65;;
19566;SDS011;9930;49.240;8.548;2022-12-07T04:10:51;5.07;;;4.50;;
19566;SDS011;9930;49.240;8.548;2022-12-07T04:13:17;5.28;;;4.78;;
19566;SDS011;9930;49.240;8.548;2022-12-07T04:15:46;5.53;;;5.03;;
19566;SDS011;9930;49.240;8.548;2022-12-07T04:18:16;6.15;;;5.57;;
19566;SDS011;9930;49.240;8.548;2022-12-07T04:20:50;5.97;;;5.35;;
19566;SDS011;9930;49.240;8.548;2022-12-07T04:23:16;6.20;;;5.55;;
19566;SDS011;9930;49.240;8.548;2022-12-07T04:25:47;5.75;;;5.05;;
19566;SDS011;9930;49.240;8.548;2022-12-07T04:28:23;5.80;;;5.25;;
19566;SDS011;9930;49.240;8.548;2022-12-07T04:30:50;6.40;;;5.80;;
19566;SDS011;9930;49.240;8.548;2022-12-07T04:33:20;6.05;;;5.45;;
19566;SDS011;9930;49.240;8.548;2022-12-07T04:35:50;6.05;;;5.45;;
19566;SDS011;9930;49.240;8.548;2022-12-07T04:38:17;6.50;;;5.80;;
19566;SDS011;9930;49.240;8.548;2022-12-07T04:40:50;6.30;;;5.70;;
19566;SDS011;9930;49.240;8.548;2022-12-07T04:43:17;7.05;;;5.82;;
19566;SDS011;9930;49.240;8.548;2022-12-07T04:45:50;7.53;;;5.82;;
19566;SDS011;9930;49.240;8.548;2022-12-07T04:48:17;6.50;;;5.90;;
19566;SDS011;9930;49.240;8.548;2022-12-07T04:50:49;6.30;;;5.72;;
19566;SDS011;9930;49.240;8.548;2022-12-07T04:53:18;6.35;;;5.75;;
19566;SDS011;9930;49.240;8.548;2022-12-07T04:55:47;6.47;;;5.88;;
19566;SDS011;9930;49.240;8.548;2022-12-07T04:58:15;6.57;;;5.72;;
19566;SDS011;9930;49.240;8.548;2022-12-07T05:00:44;6.53;;;5.93;;
19566;SDS011;9930;49.240;8.548;2022-12-07T05:03:10;6.72;;;5.80;;
19566;SDS011;9930;49.240;8.548;2022-12-07T05:05:35;6.82;;;5.80;;
19566;SDS011;9930;49.240;8.548;2022-12-07T05:08:01;7.35;;;6.50;;
19566;SDS011;9930;49.240;8.548;2022-12-07T05:10:26;7.75;;;6.13;;
19566;SDS011;9930;49.240;8.548;2022-12-07T05:12:52;6.68;;;6.07;;
19566;SDS011;9930;49.240;8.548;2022-12-07T05:15:19;7.63;;;6.57;;
19566;SDS011;9930;49.240;8.548;2022-12-07T05:17:46;7.47;;;6.53;;
19566;SDS011;9930;49.240;8.548;2022-12-07T05:20:23;6.75;;;6.05;;
19566;SDS011;9930;49.240;8.548;2022-12-07T05:22:51;7.32;;;6.50;;
19566;SDS011;9930;49.240;8.548;2022-12-07T05:25:20;7.07;;;6.32;;
19566;SDS011;9930;49.240;8.548;2022-12-07T05:27:46;7.10;;;6.40;;
19566;SDS011;9930;49.240;8.548;2022-12-07T05:30:24;7.65;;;6.85;;
19566;SDS011;9930;49.240;8.548;2022-12-07T05:32:51;7.43;;;6.40;;
19566;SDS011;9930;49.240;8.548;2022-12-07T05:35:21;7.07;;;6.38;;
19566;SDS011;9930;49.240;8.548;2022-12-07T05:37:47;8.57;;;7.70;;
19566;SDS011;9930;49.240;8.548;2022-12-07T05:40:20;11.70;;;9.30;;
19566;SDS011;9930;49.240;8.548;2022-12-07T05:42:46;12.35;;;9.57;;
19566;SDS011;9930;49.240;8.548;2022-12-07T05:45:14;11.32;;;9.35;;
19566;SDS011;9930;49.240;8.548;2022-12-07T05:47:40;12.48;;;10.30;;
19566;SDS011;9930;49.240;8.548;2022-12-07T05:50:08;13.70;;;10.27;;
19566;SDS011;9930;49.240;8.548;2022-12-07T05:52:34;11.65;;;10.23;;
19566;SDS011;9930;49.240;8.548;2022-12-07T05:55:01;11.07;;;9.45;;
19566;SDS011;9930;49.240;8.548;2022-12-07T05:57:27;10.55;;;9.52;;
19566;SDS011;9930;49.240;8.548;2022-12-07T05:59:53;10.05;;;9.05;;
19566;SDS011;9930;49.240;8.548;2022-12-07T06:02:24;9.43;;;8.52;;
19566;SDS011;9930;49.240;8.548;2022-12-07T06:04:51;9.00;;;8.10;;
19566;SDS011;9930;49.240;8.548;2022-12-07T06:07:23;8.25;;;7.45;;
19566;SDS011;9930;49.240;8.548;2022-12-07T06:09:51;8.00;;;7.20;;
19566;SDS011;9930;49.240;8.548;2022-12-07T06:12:18;6.88;;;6.18;;
19566;SDS011;9930;49.240;8.548;2022-12-07T06:15:07;7.07;;;6.18;;
19566;SDS011;9930;49.240;8.548;2022-12-07T06:17:37;7.40;;;6.60;;
19566;SDS011;9930;49.240;8.548;2022-12-07T06:20:06;7.15;;;6.45;;
19566;SDS011;9930;49.240;8.548;2022-12-07T06:22:35;7.85;;;7.05;;
19566;SDS011;9930;49.240;8.548;2022-12-07T06:25:00;8.38;;;7.18;;
19566;SDS011;9930;49.240;8.548;2022-12-07T06:27:29;7.38;;;6.57;;
19566;SDS011;9930;49.240;8.548;2022-12-07T06:29:54;7.45;;;6.72;;
19566;SDS011;9930;49.240;8.548;2022-12-07T06:32:22;7.15;;;6.30;;
19566;SDS011;9930;49.240;8.548;2022-12-07T06:34:53;8.43;;;7.25;;
19566;SDS011;9930;49.240;8.548;2022-12-07T06:37:21;6.82;;;6.13;;
19566;SDS011;9930;49.240;8.548;2022-12-07T06:39:49;7.47;;;6.68;;
19566;SDS011;9930;49.240;8.548;2022-12-07T06:42:19;7.35;;;6.53;;
19566;SDS011;9930;49.240;8.548;2022-12-07T06:44:54;7.13;;;6.43;;
19566;SDS011;9930;49.240;8.548;2022-12-07T06:47:21;7.15;;;6.35;;
19566;SDS011;9930;49.240;8.548;2022-12-07T06:49:47;7.00;;;6.30;;
19566;SDS011;9930;49.240;8.548;2022-12-07T06:52:17;7.13;;;6.43;;
19566;SDS011;9930;49.240;8.548;2022-12-07T06:54:51;7.30;;;6.57;;
19566;SDS011;9930;49.240;8.548;2022-12-07T06:57:18;7.00;;;6.30;;
19566;SDS011;9930;49.240;8.548;2022-12-07T06:59:51;8.02;;;6.60;;
19566;SDS011;9930;49.240;8.548;2022-12-07T07:02:19;8.55;;;7.38;;
19566;SDS011;9930;49.240;8.548;2022-12-07T07:04:50;9.15;;;6.95;;
19566;SDS011;9930;49.240;8.548;2022-12-07T07:07:18;8.73;;;7.38;;
19566;SDS011;9930;49.240;8.548;2022-12-07T07:09:46;8.15;;;7.13;;
19566;SDS011;9930;49.240;8.548;2022-12-07T07:12:16;8.15;;;7.30;;
19566;SDS011;9930;49.240;8.548;2022-12-07T07:14:46;10.73;;;9.38;;
19566;SDS011;9930;49.240;8.548;2022-12-07T07:17:16;10.98;;;9.63;;
19566;SDS011;9930;49.240;8.548;2022-12-07T07:19:51;9.70;;;8.65;;
19566;SDS011;9930;49.240;8.548;2022-12-07T07:22:17;9.23;;;8.30;;
19566;SDS011;9930;49.240;8.548;2022-12-07T07:24:46;11.85;;;8.98;;
19566;SDS011;9930;49.240;8.548;2022-12-07T07:27:16;8.85;;;7.95;;
19566;SDS011;9930;49.240;8.548;2022-12-07T07:29:50;8.13;;;7.28;;
19566;SDS011;9930;49.240;8.548;2022-12-07T07:32:17;8.05;;;7.25;;
19566;SDS011;9930;49.240;8.548;2022-12-07T07:34:47;8.27;;;7.22;;
19566;SDS011;9930;49.240;8.548;2022-12-07T07:37:17;8.32;;;7.43;;
19566;SDS011;9930;49.240;8.548;2022-12-07T07:39:46;8.60;;;7.60;;
19566;SDS011;9930;49.240;8.548;2022-12-07T07:42:21;8.13;;;7.32;;
19566;SDS011;9930;49.240;8.548;2022-12-07T07:44:51;8.00;;;7.20;;
19566;SDS011;9930;49.240;8.548;2022-12-07T07:47:18;7.68;;;6.85;;
19566;SDS011;9930;49.240;8.548;2022-12-07T07:49:46;7.72;;;6.57;;
19566;SDS011;9930;49.240;8.548;2022-12-07T07:52:15;7.18;;;6.40;;
19566;SDS011;9930;49.240;8.548;2022-12-07T07:54:41;7.88;;;6.95;;
19566;SDS011;9930;49.240;8.548;2022-12-07T07:57:06;7.88;;;7.00;;
19566;SDS011;9930;49.240;8.548;2022-12-07T07:59:32;7.85;;;6.75;;
19566;SDS011;9930;49.240;8.548;2022-12-07T08:02:00;7.47;;;6.65;;
19566;SDS011;9930;49.240;8.548;2022-12-07T08:04:30;7.55;;;6.75;;
19566;SDS011;9930;49.240;8.548;2022-12-07T08:06:58;7.07;;;6.38;;
19566;SDS011;9930;49.240;8.548;2022-12-07T08:09:24;7.13;;;6.40;;
19566;SDS011;9930;49.240;8.548;2022-12-07T08:11:54;7.78;;;6.97;;
19566;SDS011;9930;49.240;8.548;2022-12-07T08:14:22;7.32;;;6.50;;
19566;SDS011;9930;49.240;8.548;2022-12-07T08:16:50;8.00;;;7.00;;
19566;SDS011;9930;49.240;8.548;2022-12-07T08:19:20;7.30;;;6.43;;
19566;SDS011;9930;49.240;8.548;2022-12-07T08:21:47;8.73;;;6.78;;
19566;SDS011;9930;49.240;8.548;2022-12-07T08:24:14;7.95;;;7.15;;
19566;SDS011;9930;49.240;8.548;2022-12-07T08:26:40;6.95;;;6.25;;
19566;SDS011;9930;49.240;8.548;2022-12-07T08:29:06;7.60;;;6.85;;
19566;SDS011;9930;49.240;8.548;2022-12-07T08:31:32;7.28;;;6.57;;
19566;SDS011;9930;49.240;8.548;2022-12-07T08:33:57;6.88;;;6.18;;
19566;SDS011;9930;49.240;8.548;2022-12-07T08:36:25;7.57;;;6.78;;
19566;SDS011;9930;49.240;8.548;2022-12-07T08:38:52;7.75;;;6.60;;
19566;SDS011;9930;49.240;8.548;2022-12-07T08:41:20;7.40;;;6.60;;
19566;SDS011;9930;49.240;8.548;2022-12-07T08:43:50;6.40;;;5.80;;
19566;SDS011;9930;49.240;8.548;2022-12-07T08:49:05;7.57;;;6.80;;
19566;SDS011;9930;49.240;8.548;2022-12-07T08:51:55;7.45;;;6.38;;
19566;SDS011;9930;49.240;8.548;2022-12-07T08:54:21;7.82;;;6.72;;
19566;SDS011;9930;49.240;8.548;2022-12-07T08:56:51;9.02;;;8.10;;
19566;SDS011;9930;49.240;8.548;2022-12-07T08:59:21;8.13;;;7.22;;
19566;SDS011;9930;49.240;8.548;2022-12-07T09:01:50;7.88;;;6.88;;
19566;SDS011;9930;49.240;8.548;2022-12-07T09:04:20;7.63;;;6.80;;
19566;SDS011;9930;49.240;8.548;2022-12-07T09:06:46;6.93;;;6.22;;
19566;SDS011;9930;49.240;8.548;2022-12-07T09:09:20;8.30;;;7.50;;
19566;SDS011;9930;49.240;8.548;2022-12-07T09:11:46;8.02;;;6.95;;
19566;SDS011;9930;49.240;8.548;2022-12-07T09:14:21;7.43;;;6.68;;
19566;SDS011;9930;49.240;8.548;2022-12-07T09:16:48;7.72;;;6.93;;
19566;SDS011;9930;49.240;8.548;2022-12-07T09:19:21;7.63;;;6.60;;
19566;SDS011;9930;49.240;8.548;2022-12-07T09:21:47;7.43;;;6.63;;
19566;SDS011;9930;49.240;8.548;2022-12-07T09:24:18;7.45;;;6.68;;
19566;SDS011;9930;49.240;8.548;2022-12-07T09:26:49;9.13;;;7.57;;
19566;SDS011;9930;49.240;8.548;2022-12-07T09:29:21;7.88;;;6.95;;
19566;SDS011;9930;49.240;8.548;2022-12-07T09:31:56;7.30;;;6.55;;
19566;SDS011;9930;49.240;8.548;2022-12-07T09:34:22;7.93;;;7.13;;
19566;SDS011;9930;49.240;8.548;2022-12-07T09:36:48;9.07;;;7.05;;
19566;SDS011;9930;49.240;8.548;2022-12-07T09:39:17;7.88;;;7.07;;
19566;SDS011;9930;49.240;8.548;2022-12-07T09:41:47;8.07;;;6.78;;
19566;SDS011;9930;49.240;8.548;2022-12-07T09:44:19;8.23;;;7.43;;
19566;SDS011;9930;49.240;8.548;2022-12-07T09:46:51;7.35;;;6.57;;
19566;SDS011;9930;49.240;8.548;2022-12-07T09:49:22;7.90;;;6.93;;
19566;SDS011;9930;49.240;8.548;2022-12-07T09:55:01;7.10;;;6.40;;
19566;SDS011;9930;49.240;8.548;2022-12-07T09:57:31;8.07;;;7.28;;
19566;SDS011;9930;49.240;8.548;2022-12-07T10:00:00;7.78;;;6.95;;
19566;SDS011;9930;49.240;8.548;2022-12-07T10:05:07;8.00;;;7.20;;
19566;SDS011;9930;49.240;8.548;2022-12-07T10:08:11;7.55;;;6.70;;
19566;SDS011;9930;49.240;8.548;2022-12-07T10:10:39;7.70;;;6.57;;
19566;SDS011;9930;49.240;8.548;2022-12-07T10:13:10;7.35;;;6.65;;
19566;SDS011;9930;49.240;8.548;2022-12-07T10:15:56;7.10;;;6.40;;
19566;SDS011;9930;49.240;8.548;2022-12-07T10:18:29;7.40;;;6.70;;
19566;SDS011;9930;49.240;8.548;2022-12-07T10:32:04;9.02;;;7.13;;
19566;SDS011;9930;49.240;8.548;2022-12-07T10:34:40;8.43;;;7.53;;
19566;SDS011;9930;49.240;8.548;2022-12-07T10:42:26;7.18;;;6.47;;
19566;SDS011;9930;49.240;8.548;2022-12-07T10:45:28;7.25;;;6.50;;
19566;SDS011;9930;49.240;8.548;2022-12-07T10:48:00;7.78;;;6.97;;
19566;SDS011;9930;49.240;8.548;2022-12-07T11:02:32;7.07;;;6.30;;
19566;SDS011;9930;49.240;8.548;2022-12-07T11:05:42;7.95;;;7.15;;
19566;SDS011;9930;49.240;8.548;2022-12-07T11:10:54;7.22;;;6.53;;
19566;SDS011;9930;49.240;8.548;2022-12-07T11:16:34;9.10;;;7.22;;
19566;SDS011;9930;49.240;8.548;2022-12-07T11:19:27;7.38;;;6.68;;
19566;SDS011;9930;49.240;8.548;2022-12-07T11:22:06;7.10;;;6.40;;
19566;SDS011;9930;49.240;8.548;2022-12-07T11:27:37;7.72;;;6.78;;
19566;SDS011;9930;49.240;8.548;2022-12-07T11:31:08;7.80;;;7.03;;
19566;SDS011;9930;49.240;8.548;2022-12-07T11:34:04;7.53;;;6.70;;
19566;SDS011;9930;49.240;8.548;2022-12-07T11:36:47;7.85;;;7.05;;
19566;SDS011;9930;49.240;8.548;2022-12-07T11:39:22;8.50;;;7.50;;
19566;SDS011;9930;49.240;8.548;2022-12-07T11:42:04;8.45;;;7.32;;
19566;SDS011;9930;49.240;8.548;2022-12-07T11:44:58;7.75;;;6.60;;
19566;SDS011;9930;49.240;8.548;2022-12-07T11:48:03;7.88;;;6.60;;
19566;SDS011;9930;49.240;8.548;2022-12-07T11:51:00;7.40;;;6.70;;
19566;SDS011;9930;49.240;8.548;2022-12-07T11:53:32;7.60;;;6.80;;
19566;SDS011;9930;49.240;8.548;2022-12-07T11:56:09;8.05;;;7.25;;
19566;SDS011;9930;49.240;8.548;2022-12-07T12:01:35;8.13;;;7.30;;
19566;SDS011;9930;49.240;8.548;2022-12-07T12:06:38;7.50;;;6.80;;
19566;SDS011;9930;49.240;8.548;2022-12-07T12:09:14;7.90;;;7.05;;
19566;SDS011;9930;49.240;8.548;2022-12-07T12:14:55;7.53;;;6.75;;
19566;SDS011;9930;49.240;8.548;2022-12-07T12:21:00;8.80;;;7.57;;
19566;SDS011;9930;49.240;8.548;2022-12-07T12:23:36;8.75;;;7.60;;
19566;SDS011;9930;49.240;8.548;2022-12-07T12:26:15;8.23;;;7.30;;
19566;SDS011;9930;49.240;8.548;2022-12-07T12:50:10;7.60;;;6.80;;
19566;SDS011;9930;49.240;8.548;2022-12-07T12:55:54;7.63;;;6.88;;
19566;SDS011;9930;49.240;8.548;2022-12-07T13:02:37;7.85;;;7.05;;
19566;SDS011;9930;49.240;8.548;2022-12-07T13:04:55;7.93;;;7.10;;
19566;SDS011;9930;49.240;8.548;2022-12-07T13:13:01;8.57;;;7.25;;
19566;SDS011;9930;49.240;8.548;2022-12-07T13:18:39;8.07;;;6.50;;
19566;SDS011;9930;49.240;8.548;2022-12-07T13:23:55;7.85;;;7.00;;
19566;SDS011;9930;49.240;8.548;2022-12-07T13:37:01;7.82;;;7.03;;
19566;SDS011;9930;49.240;8.548;2022-12-07T13:39:46;8.05;;;7.25;;
19566;SDS011;9930;49.240;8.548;2022-12-07T13:42:28;7.43;;;6.65;;
19566;SDS011;9930;49.240;8.548;2022-12-07T13:44:57;6.55;;;5.93;;
19566;SDS011;9930;49.240;8.548;2022-12-07T13:50:27;6.90;;;5.82;;
19566;SDS011;9930;49.240;8.548;2022-12-07T13:52:57;7.15;;;6.25;;
19566;SDS011;9930;49.240;8.548;2022-12-07T13:55:26;7.40;;;6.47;;
19566;SDS011;9930;49.240;8.548;2022-12-07T13:57:54;6.55;;;5.95;;
19566;SDS011;9930;49.240;8.548;2022-12-07T14:00:22;8.45;;;7.22;;
19566;SDS011;9930;49.240;8.548;2022-12-07T14:03:04;6.90;;;6.20;;
19566;SDS011;9930;49.240;8.548;2022-12-07T14:11:52;7.28;;;5.88;;
19566;SDS011;9930;49.240;8.548;2022-12-07T14:14:23;7.22;;;5.85;;
19566;SDS011;9930;49.240;8.548;2022-12-07T14:19:42;6.63;;;5.93;;
19566;SDS011;9930;49.240;8.548;2022-12-07T14:22:53;6.15;;;5.55;;
19566;SDS011;9930;49.240;8.548;2022-12-07T14:27:38;6.68;;;5.78;;
19566;SDS011;9930;49.240;8.548;2022-12-07T14:30:17;7.90;;;6.05;;
19566;SDS011;9930;49.240;8.548;2022-12-07T14:32:58;6.90;;;6.00;;
19566;SDS011;9930;49.240;8.548;2022-12-07T14:35:30;8.23;;;6.88;;
19566;SDS011;9930;49.240;8.548;2022-12-07T14:37:57;7.63;;;6.47;;
19566;SDS011;9930;49.240;8.548;2022-12-07T14:40:24;8.32;;;6.93;;
19566;SDS011;9930;49.240;8.548;2022-12-07T14:43:03;7.93;;;6.55;;
19566;SDS011;9930;49.240;8.548;2022-12-07T14:45:41;7.72;;;6.13;;
19566;SDS011;9930;49.240;8.548;2022-12-07T14:48:10;9.13;;;6.75;;
19566;SDS011;9930;49.240;8.548;2022-12-07T14:50:42;7.40;;;6.60;;
19566;SDS011;9930;49.240;8.548;2022-12-07T14:53:16;7.72;;;6.75;;
19566;SDS011;9930;49.240;8.548;2022-12-07T14:55:52;7.88;;;6.57;;
19566;SDS011;9930;49.240;8.548;2022-12-07T14:58:19;7.32;;;6.63;;
19566;SDS011;9930;49.240;8.548;2022-12-07T15:00:51;7.78;;;6.97;;
19566;SDS011;9930;49.240;8.548;2022-12-07T15:03:21;8.63;;;7.03;;
19566;SDS011;9930;49.240;8.548;2022-12-07T15:05:48;9.32;;;7.10;;
19566;SDS011;9930;49.240;8.548;2022-12-07T15:08:17;7.20;;;6.50;;
19566;SDS011;9930;49.240;8.548;2022-12-07T15:10:47;8.00;;;6.97;;
19566;SDS011;9930;49.240;8.548;2022-12-07T15:13:19;6.93;;;6.22;;
19566;SDS011;9930;49.240;8.548;2022-12-07T15:16:25;7.47;;;6.40;;
19566;SDS011;9930;49.240;8.548;2022-12-07T15:18:52;7.72;;;6.88;;
19566;SDS011;9930;49.240;8.548;2022-12-07T15:21:18;8.70;;;7.80;;
19566;SDS011;9930;49.240;8.548;2022-12-07T15:23:46;9.88;;;8.20;;
19566;SDS011;9930;49.240;8.548;2022-12-07T15:26:12;11.30;;;8.38;;
19566;SDS011;9930;49.240;8.548;2022-12-07T15:28:41;8.60;;;7.63;;
19566;SDS011;9930;49.240;8.548;2022-12-07T15:31:17;7.97;;;7.18;;
19566;SDS011;9930;49.240;8.548;2022-12-07T15:33:51;9.07;;;7.60;;
19566;SDS011;9930;49.240;8.548;2022-12-07T15:36:23;8.85;;;6.90;;
19566;SDS011;9930;49.240;8.548;2022-12-07T15:38:52;6.97;;;6.28;;
19566;SDS011;9930;49.240;8.548;2022-12-07T15:41:21;7.55;;;6.15;;
19566;SDS011;9930;49.240;8.548;2022-12-07T15:43:50;6.30;;;5.70;;
19566;SDS011;9930;49.240;8.548;2022-12-07T15:46:37;7.28;;;6.50;;
19566;SDS011;9930;49.240;8.548;2022-12-07T15:49:08;6.82;;;6.22;;
19566;SDS011;9930;49.240;8.548;2022-12-07T15:51:40;7.00;;;6.32;;
19566;SDS011;9930;49.240;8.548;2022-12-07T15:54:29;6.63;;;5.90;;
19566;SDS011;9930;49.240;8.548;2022-12-07T15:56:55;7.60;;;6.80;;
19566;SDS011;9930;49.240;8.548;2022-12-07T15:59:25;7.30;;;6.35;;
19566;SDS011;9930;49.240;8.548;2022-12-07T16:01:52;7.97;;;7.18;;
19566;SDS011;9930;49.240;8.548;2022-12-07T16:04:21;7.57;;;6.88;;
19566;SDS011;9930;49.240;8.548;2022-12-07T16:06:47;8.02;;;6.55;;
19566;SDS011;9930;49.240;8.548;2022-12-07T16:09:19;8.88;;;7.53;;
19566;SDS011;9930;49.240;8.548;2022-12-07T16:11:51;6.90;;;6.25;;
19566;SDS011;9930;49.240;8.548;2022-12-07T16:14:20;7.80;;;7.03;;
19566;SDS011;9930;49.240;8.548;2022-12-07T16:16:47;7.60;;;6.68;;
19566;SDS011;9930;49.240;8.548;2022-12-07T16:19:17;8.05;;;7.28;;
19566;SDS011;9930;49.240;8.548;2022-12-07T16:21:47;7.68;;;6.88;;
19566;SDS011;9930;49.240;8.548;2022-12-07T16:24:17;9.80;;;7.68;;
19566;SDS011;9930;49.240;8.548;2022-12-07T16:26:47;7.82;;;7.03;;
19566;SDS011;9930;49.240;8.548;2022-12-07T16:29:17;8.65;;;7.75;;
19566;SDS011;9930;49.240;8.548;2022-12-07T16:31:48;9.30;;;7.97;;
19566;SDS011;9930;49.240;8.548;2022-12-07T16:34:18;8.20;;;7.30;;
19566;SDS011;9930;49.240;8.548;2022-12-07T16:36:47;9.38;;;7.93;;
19566;SDS011;9930;49.240;8.548;2022-12-07T16:39:22;10.82;;;9.68;;
19566;SDS011;9930;49.240;8.548;2022-12-07T16:41:48;10.10;;;9.07;;
19566;SDS011;9930;49.240;8.548;2022-12-07T16:44:20;9.98;;;8.75;;
19566;SDS011;9930;49.240;8.548;2022-12-07T16:46:47;9.48;;;8.32;;
19566;SDS011;9930;49.240;8.548;2022-12-07T16:49:15;10.20;;;8.60;;
19566;SDS011;9930;49.240;8.548;2022-12-07T16:51:41;10.02;;;8.98;;
19566;SDS011;9930;49.240;8.548;2022-12-07T16:54:11;9.02;;;7.68;;
19566;SDS011;9930;49.240;8.548;2022-12-07T16:56:40;8.82;;;7.93;;
19566;SDS011;9930;49.240;8.548;2022-12-07T16:59:06;8.20;;;7.35;;
19566;SDS011;9930;49.240;8.548;2022-12-07T17:01:32;8.13;;;7.32;;
19566;SDS011;9930;49.240;8.548;2022-12-07T17:04:01;8.90;;;8.00;;
19566;SDS011;9930;49.240;8.548;2022-12-07T17:06:30;8.38;;;7.32;;
19566;SDS011;9930;49.240;8.548;2022-12-07T17:08:56;8.35;;;7.47;;
19566;SDS011;9930;49.240;8.548;2022-12-07T17:11:24;7.85;;;7.05;;
19566;SDS011;9930;49.240;8.548;2022-12-07T17:13:52;8.50;;;7.50;;
19566;SDS011;9930;49.240;8.548;2022-12-07T17:16:54;7.32;;;6.60;;
19566;SDS011;9930;49.240;8.548;2022-12-07T17:19:22;7.60;;;6.88;;
19566;SDS011;9930;49.240;8.548;2022-12-07T17:21:49;8.38;;;7.43;;
19566;SDS011;9930;49.240;8.548;2022-12-07T17:24:21;8.40;;;7.50;;
19566;SDS011;9930;49.240;8.548;2022-12-07T17:26:47;9.18;;;7.60;;
19566;SDS011;9930;49.240;8.548;2022-12-07T17:29:16;8.27;;;7.15;;
19566;SDS011;9930;49.240;8.548;2022-12-07T17:31:47;8.88;;;7.55;;
19566;SDS011;9930;49.240;8.548;2022-12-07T17:34:17;8.60;;;7.72;;
19566;SDS011;9930;49.240;8.548;2022-12-07T17:36:51;12.38;;;10.30;;
19566;SDS011;9930;49.240;8.548;2022-12-07T17:39:20;11.88;;;9.45;;
19566;SDS011;9930;49.240;8.548;2022-12-07T17:41:51;9.98;;;8.70;;
19566;SDS011;9930;49.240;8.548;2022-12-07T17:44:35;10.48;;;9.32;;
19566;SDS011;9930;49.240;8.548;2022-12-07T17:47:01;12.40;;;10.52;;
19566;SDS011;9930;49.240;8.548;2022-12-07T17:49:30;11.23;;;9.93;;
19566;SDS011;9930;49.240;8.548;2022-12-07T17:51:56;11.40;;;10.02;;
19566;SDS011;9930;49.240;8.548;2022-12-07T17:54:40;10.88;;;9.07;;
19566;SDS011;9930;49.240;8.548;2022-12-07T17:57:06;10.43;;;9.30;;
19566;SDS011;9930;49.240;8.548;2022-12-07T17:59:35;10.32;;;9.23;;
19566;SDS011;9930;49.240;8.548;2022-12-07T18:02:04;11.20;;;10.02;;
19566;SDS011;9930;49.240;8.548;2022-12-07T18:04:30;11.45;;;10.18;;
19566;SDS011;9930;49.240;8.548;2022-12-07T18:06:56;10.50;;;9.43;;
19566;SDS011;9930;49.240;8.548;2022-12-07T18:09:24;10.38;;;9.38;;